createdAt,value
2018-02-27T00:00:51.674Z,94.90
2018-02-27T00:03:19.133Z,94.70
2018-02-27T00:05:46.591Z,94.70
2018-02-27T00:08:14.667Z,94.60
2018-02-27T00:10:42.141Z,94.50
2018-02-27T00:13:10.412Z,93.90
2018-02-27T00:15:37.916Z,94.40
2018-02-27T00:18:05.421Z,94.20
2018-02-27T00:20:32.871Z,94.20
2018-02-27T00:23:00.332Z,93.90
2018-02-27T00:25:28.561Z,93.90
2018-02-27T00:27:56.019Z,93.80
2018-02-27T00:30:23.482Z,93.70
2018-02-27T00:32:51.763Z,93.50
2018-02-27T00:35:19.200Z,93.50
2018-02-27T00:37:47.233Z,93.10
2018-02-27T00:40:15.432Z,92.80
2018-02-27T00:42:43.018Z,92.70
2018-02-27T00:45:10.453Z,92.90
2018-02-27T00:47:37.939Z,92.50
2018-02-27T00:50:05.418Z,92.90
2018-02-27T00:52:32.865Z,92.10
2018-02-27T00:55:00.373Z,92.00
2018-02-27T00:57:27.826Z,91.30
2018-02-27T00:59:55.266Z,91.50
2018-02-27T01:02:22.699Z,91.50
2018-02-27T12:29:29.086Z,91.70
2018-02-27T12:31:57.199Z,29.10
2018-02-27T12:34:24.735Z,28.50
2018-02-27T12:36:54.057Z,28.60
2018-02-27T12:39:23.717Z,29.40
2018-02-27T12:41:52.134Z,29.40
2018-02-27T12:44:19.806Z,29.00
2018-02-27T12:46:47.319Z,28.80
2018-02-27T12:49:14.760Z,28.50
2018-02-27T12:51:44.312Z,29.00
2018-02-27T12:54:18.000Z,29.00
2018-02-27T12:56:45.461Z,29.00
2018-02-27T12:59:19.037Z,28.60
2018-02-27T13:01:46.519Z,28.10
2018-02-27T13:04:14.351Z,28.50
2018-02-27T13:06:42.896Z,28.00
2018-02-27T13:09:10.379Z,28.30
2018-02-27T13:11:37.843Z,28.80
2018-02-27T13:14:09.889Z,28.60
2018-02-27T13:16:37.556Z,28.30
2018-02-27T13:19:08.969Z,28.30
2018-02-27T13:21:37.209Z,28.60
2018-02-27T13:24:04.678Z,28.20
2018-02-27T13:26:34.870Z,28.20
2018-02-27T13:29:02.796Z,27.80
2018-02-27T13:31:44.594Z,27.80
2018-02-27T13:34:12.073Z,27.80
2018-02-27T13:36:39.513Z,27.70
2018-02-27T13:39:06.967Z,27.90
2018-02-27T13:41:34.426Z,27.90
2018-02-27T13:44:03.199Z,27.80
2018-02-27T13:46:32.003Z,28.10
2018-02-27T13:49:04.002Z,27.50
2018-02-27T13:51:29.326Z,27.90
2018-02-27T13:53:56.790Z,27.50
2018-02-27T13:56:24.266Z,28.00
2018-02-27T13:58:53.150Z,28.40
2018-02-27T14:01:21.821Z,28.20
2018-02-27T14:03:49.351Z,28.10
2018-02-27T14:06:16.796Z,27.80
2018-02-27T14:08:44.233Z,27.80
2018-02-27T14:11:13.933Z,28.20
2018-02-27T14:13:45.330Z,27.80
2018-02-27T14:16:13.574Z,27.70
2018-02-27T14:18:41.106Z,28.00
2018-02-27T14:21:08.689Z,28.40
2018-02-27T14:23:36.186Z,28.40
2018-02-27T14:26:07.488Z,27.80
2018-02-27T14:28:35.544Z,27.90
2018-02-27T14:31:11.196Z,27.70
2018-02-27T14:33:40.401Z,27.80
2018-02-27T14:36:07.865Z,27.30
2018-02-27T14:38:35.410Z,27.90
2018-02-27T14:41:03.660Z,28.20
2018-02-27T14:43:34.011Z,28.20
2018-02-27T14:46:01.694Z,28.10
2018-02-27T14:48:31.167Z,28.10
2018-02-27T14:51:01.829Z,28.20
2018-02-27T14:53:30.622Z,28.20
2018-02-27T14:55:58.234Z,28.00
2018-02-27T14:58:27.050Z,28.40
2018-02-27T15:00:54.521Z,28.40
2018-02-27T15:03:21.966Z,28.30
2018-02-27T15:05:49.450Z,28.30
2018-02-27T15:08:17.067Z,28.50
2018-02-27T15:10:44.527Z,28.70
2018-02-27T15:13:12.014Z,28.70
2018-02-27T15:15:39.487Z,28.50
2018-02-27T15:18:07.093Z,28.50
2018-02-27T15:20:34.589Z,28.70
2018-02-27T15:23:02.106Z,29.20
2018-02-27T15:25:29.676Z,29.00
2018-02-27T15:28:00.001Z,29.30
2018-02-27T15:30:27.468Z,29.70
2018-02-27T15:32:55.227Z,30.10
2018-02-27T15:35:24.820Z,30.60
2018-02-27T15:37:53.427Z,31.10
2018-02-27T15:40:20.955Z,31.20
2018-02-27T15:42:48.410Z,31.60
2018-02-27T15:45:15.975Z,32.00
2018-02-27T15:47:43.466Z,32.20
2018-02-27T15:50:11.429Z,32.40
2018-02-27T15:52:40.241Z,32.50
2018-02-27T15:55:07.685Z,32.80
2018-02-27T15:57:35.881Z,33.10
2018-02-27T16:00:05.013Z,33.30
2018-02-27T16:02:32.510Z,33.20
2018-02-27T16:04:59.982Z,33.50
2018-02-27T16:07:27.473Z,33.90
2018-02-27T16:09:59.025Z,34.10
2018-02-27T16:12:26.545Z,36.10
2018-02-27T16:14:54.004Z,35.20
2018-02-27T16:17:21.463Z,35.50
2018-02-27T16:19:48.908Z,35.80
2018-02-27T16:22:16.384Z,35.90
2018-02-27T16:24:44.624Z,36.40
2018-02-27T16:27:12.096Z,36.40
2018-02-27T16:29:39.601Z,36.70
2018-02-27T16:32:07.084Z,37.00
2018-02-27T16:34:34.545Z,37.50
2018-02-27T16:37:01.990Z,37.80
2018-02-27T16:39:29.487Z,38.10
2018-02-27T16:41:56.959Z,38.40
2018-02-27T16:44:24.406Z,38.90
2018-02-27T16:46:51.924Z,39.10
2018-02-27T16:49:19.529Z,39.10
2018-02-27T16:51:46.977Z,39.30
2018-02-27T16:54:14.444Z,39.50
2018-02-27T16:56:41.892Z,39.70
2018-02-27T16:59:10.149Z,40.70
2018-02-27T17:01:37.612Z,40.20
2018-02-27T17:04:05.165Z,40.40
2018-02-27T17:06:32.631Z,41.00
2018-02-27T17:09:00.922Z,41.80
2018-02-27T17:11:29.160Z,41.60
2018-02-27T17:13:57.404Z,41.80
2018-02-27T17:16:25.628Z,41.80
2018-02-27T17:18:53.844Z,42.80
2018-02-27T17:21:21.304Z,42.20
2018-02-27T17:23:48.872Z,42.20
2018-02-27T17:26:16.355Z,42.30
2018-02-27T17:28:43.795Z,43.00
2018-02-27T17:31:24.069Z,42.60
2018-02-27T17:33:51.531Z,42.80
2018-02-27T17:36:19.358Z,43.00
2018-02-27T17:38:46.805Z,43.30
2018-02-27T17:41:14.268Z,43.40
2018-02-27T17:43:41.716Z,43.60
2018-02-27T17:46:09.193Z,43.70
2018-02-27T17:48:44.604Z,43.70
2018-02-27T17:51:12.090Z,43.90
2018-02-27T17:53:41.149Z,43.80
2018-02-27T17:56:08.653Z,44.20
2018-02-27T17:58:36.134Z,44.50
2018-02-27T18:01:07.062Z,44.60
2018-02-27T18:03:34.824Z,45.40
2018-02-27T18:06:02.297Z,45.10
2018-02-27T18:08:30.503Z,45.10
2018-02-27T18:11:03.924Z,45.10
2018-02-27T18:13:32.190Z,45.60
2018-02-27T18:15:59.689Z,45.50
2018-02-27T18:18:27.915Z,46.00
2018-02-27T18:20:55.409Z,45.90
2018-02-27T18:23:22.857Z,45.90
2018-02-27T18:25:50.327Z,45.90
2018-02-27T18:28:21.689Z,45.80
2018-02-27T18:30:49.951Z,46.10
2018-02-27T18:33:17.487Z,46.00
2018-02-27T18:35:44.955Z,46.20
2018-02-27T18:38:12.467Z,46.30
2018-02-27T18:40:40.684Z,46.20
2018-02-27T18:43:08.144Z,46.10
2018-02-27T18:45:35.621Z,46.20
2018-02-27T18:48:03.856Z,46.30
2018-02-27T18:50:31.407Z,46.30
2018-02-27T18:52:58.860Z,46.40
2018-02-27T18:55:26.345Z,46.60
2018-02-27T18:57:53.830Z,46.30
2018-02-27T19:00:21.316Z,46.40
2018-02-27T19:02:49.000Z,46.60
2018-02-27T19:05:17.237Z,47.10
2018-02-27T19:07:45.447Z,47.00
2018-02-27T19:10:23.624Z,47.00
2018-02-27T19:12:51.163Z,47.00
2018-02-27T19:15:18.765Z,47.20
2018-02-27T19:17:46.245Z,47.20
2018-02-27T19:20:13.720Z,47.30
2018-02-27T19:22:41.198Z,47.20
2018-02-27T19:25:09.397Z,47.30
2018-02-27T19:27:45.383Z,47.30
2018-02-27T19:30:29.246Z,47.30
2018-02-27T19:32:56.907Z,47.20
2018-02-27T19:35:24.531Z,47.20
2018-02-27T19:37:52.277Z,47.50
2018-02-27T19:40:19.697Z,47.50
2018-02-27T19:42:47.148Z,47.70
2018-02-27T19:45:14.634Z,47.80
2018-02-27T19:47:42.087Z,47.70
2018-02-27T19:50:13.100Z,47.60
2018-02-27T19:52:41.192Z,47.80
2018-02-27T19:55:12.641Z,48.00
2018-02-27T19:57:41.492Z,47.90
2018-02-27T20:00:15.566Z,48.00
2018-02-27T20:02:57.304Z,48.00
2018-02-27T20:05:25.593Z,48.10
2018-02-27T20:07:53.816Z,48.30
2018-02-27T20:10:25.174Z,48.20
2018-02-27T20:12:54.010Z,48.20
2018-02-27T20:15:22.433Z,48.50
2018-02-27T20:17:55.628Z,48.60
2018-02-27T20:20:23.078Z,48.60
2018-02-27T20:22:57.029Z,48.90
2018-02-27T20:25:25.335Z,49.10
2018-02-27T20:27:52.775Z,49.10
2018-02-27T20:30:20.471Z,49.10
2018-02-27T20:32:48.876Z,48.90
2018-02-27T20:35:16.342Z,49.20
2018-02-27T20:37:47.721Z,49.20
2018-02-27T20:40:15.957Z,49.10
2018-02-27T20:42:44.296Z,49.10
2018-02-27T20:45:16.615Z,49.30
2018-02-27T20:47:44.067Z,49.30
2018-02-27T20:50:11.656Z,49.70
2018-02-27T20:52:39.897Z,49.70
2018-02-27T20:55:07.357Z,49.70
2018-02-27T20:57:34.819Z,49.80
2018-02-27T21:00:06.740Z,49.80
2018-02-27T21:02:34.221Z,49.70
2018-02-27T21:05:01.727Z,49.90
2018-02-27T21:07:29.239Z,50.60
2018-02-27T21:09:56.831Z,50.30
2018-02-27T21:12:25.058Z,50.60
2018-02-27T21:14:52.537Z,50.50
2018-02-27T21:17:20.016Z,50.60
2018-02-27T21:19:47.667Z,50.40
2018-02-27T21:22:15.108Z,50.60
2018-02-27T21:24:42.582Z,50.20
2018-02-27T21:27:10.074Z,50.30
2018-02-27T21:29:40.007Z,50.40
2018-02-27T21:32:08.121Z,50.40
2018-02-27T21:34:35.649Z,50.50
2018-02-27T21:37:03.871Z,50.60
2018-02-27T21:39:31.360Z,50.60
2018-02-27T21:41:59.775Z,50.60
2018-02-27T21:44:27.268Z,50.70
2018-02-27T21:46:54.755Z,50.70
2018-02-27T21:49:22.223Z,50.90
2018-02-27T21:51:49.821Z,51.00
2018-02-27T21:54:18.056Z,51.20
2018-02-27T21:56:45.513Z,51.10
2018-02-27T21:59:13.001Z,51.00
2018-02-27T22:01:41.553Z,51.20
2018-02-27T22:04:11.890Z,54.60
2018-02-27T22:06:40.185Z,54.60
2018-02-27T22:09:07.736Z,51.90
2018-02-27T22:11:35.988Z,51.80
2018-02-27T22:14:03.448Z,51.80
2018-02-27T22:16:30.985Z,51.80
2018-02-27T22:18:58.452Z,51.80
2018-02-27T22:21:25.928Z,51.60
2018-02-27T22:23:53.381Z,51.70
2018-02-27T22:26:23.526Z,51.90
2018-02-27T22:28:51.908Z,52.00
2018-02-27T22:31:19.383Z,52.00
2018-02-27T22:33:46.826Z,52.20
2018-02-27T22:36:14.280Z,52.20
2018-02-27T22:38:43.662Z,52.30
2018-02-27T22:41:11.886Z,52.50
2018-02-27T22:43:39.337Z,52.60
2018-02-27T22:46:06.785Z,52.50
2018-02-27T22:48:34.255Z,52.70
2018-02-27T22:51:06.146Z,53.50
2018-02-27T22:53:33.747Z,53.20
2018-02-27T22:56:02.033Z,53.20
2018-02-27T22:58:29.473Z,53.30
2018-02-27T23:00:59.370Z,53.50
2018-02-27T23:03:28.463Z,53.80
2018-02-27T23:05:56.851Z,53.80
2018-02-27T23:08:24.350Z,53.80
2018-02-27T23:10:51.825Z,53.90
2018-02-27T23:13:23.276Z,53.80
2018-02-27T23:15:50.715Z,54.00
2018-02-27T23:18:19.267Z,54.00
2018-02-27T23:20:46.781Z,54.00
2018-02-27T23:23:15.016Z,54.40
2018-02-27T23:39:12.618Z,55.00
2018-02-27T23:41:40.847Z,55.40
2018-02-27T23:44:08.490Z,55.30
2018-02-27T23:46:35.977Z,55.50
2018-02-27T23:49:03.441Z,55.50
2018-02-27T23:51:35.004Z,55.50
2018-02-27T23:54:02.471Z,55.50
2018-02-27T23:56:34.712Z,55.50
2018-02-27T23:59:02.175Z,55.40
